createdAt,value
2018-07-03T00:00:32.842Z,99465.74
2018-07-03T00:03:00.717Z,99464.91
2018-07-03T00:05:28.606Z,99461.61
2018-07-03T00:07:57.479Z,99460.14
2018-07-03T00:10:25.682Z,99459.50
2018-07-03T00:12:53.546Z,99458.41
2018-07-03T00:15:21.423Z,99460.05
2018-07-03T00:17:49.307Z,99455.11
2018-07-03T00:20:17.782Z,99455.38
2018-07-03T00:22:45.600Z,99452.33
2018-07-03T00:25:13.485Z,99452.07
2018-07-03T00:27:41.376Z,99449.02
2018-07-03T00:30:09.245Z,99451.20
2018-07-03T00:32:37.163Z,99450.08
2018-07-03T00:35:05.095Z,99451.47
2018-07-03T00:37:32.938Z,99437.23
2018-07-03T00:40:00.776Z,99440.55
2018-07-03T00:42:28.611Z,99440.81
2018-07-03T00:44:56.476Z,99438.58
2018-07-03T00:47:24.350Z,99433.96
2018-07-03T00:49:52.216Z,99426.81
2018-07-03T00:52:20.094Z,99421.84
2018-07-03T00:54:47.964Z,99411.71
2018-07-03T00:57:15.831Z,99409.24
2018-07-03T00:59:54.674Z,99403.20
2018-07-03T01:02:22.850Z,99400.02
2018-07-03T01:04:50.717Z,99404.13
2018-07-03T01:07:18.587Z,99405.55
2018-07-03T01:09:46.545Z,99409.94
2018-07-03T01:12:14.419Z,99418.91
2018-07-03T01:14:42.334Z,99426.62
2018-07-03T01:17:10.235Z,99423.09
2018-07-03T01:19:38.114Z,99434.91
2018-07-03T01:22:06.075Z,99440.48
2018-07-03T01:24:33.972Z,99441.12
2018-07-03T01:27:01.889Z,99443.70
2018-07-03T01:29:29.791Z,99443.72
2018-07-03T01:31:57.686Z,99431.91
2018-07-03T01:34:25.588Z,99432.34
2018-07-03T01:36:53.455Z,99431.86
2018-07-03T01:39:21.363Z,99436.59
2018-07-03T01:41:49.219Z,99437.72
2018-07-03T01:44:17.115Z,99440.53
2018-07-03T01:46:44.999Z,99447.09
2018-07-03T01:49:12.887Z,99467.00
2018-07-03T01:51:40.730Z,99529.27
2018-07-03T01:54:08.634Z,99598.27
2018-07-03T01:56:36.503Z,99613.25
2018-07-03T01:59:04.408Z,99619.50
2018-07-03T02:01:32.347Z,99631.84
2018-07-03T02:04:00.270Z,99618.56
2018-07-03T02:06:28.140Z,99623.58
2018-07-03T02:08:56.019Z,99648.53
2018-07-03T02:11:23.898Z,99638.57
2018-07-03T02:13:51.759Z,99649.64
2018-07-03T02:16:19.691Z,99660.84
2018-07-03T02:18:47.560Z,99673.19
2018-07-03T02:21:15.435Z,99683.31
2018-07-03T02:23:43.314Z,99688.92
2018-07-03T02:26:11.334Z,99695.67
2018-07-03T02:28:39.206Z,99688.18
2018-07-03T02:31:07.194Z,99665.06
2018-07-03T02:33:35.104Z,99643.56
2018-07-03T02:36:03.071Z,99628.34
2018-07-03T02:38:30.931Z,99621.63
2018-07-03T02:40:59.087Z,99615.38
2018-07-03T02:43:27.050Z,99602.41
2018-07-03T02:45:54.954Z,99582.26
2018-07-03T02:48:22.849Z,99581.72
2018-07-03T02:50:50.730Z,99582.00
2018-07-03T02:53:18.623Z,99577.84
2018-07-03T02:55:46.534Z,99573.28
2018-07-03T02:58:14.436Z,99590.13
2018-07-03T03:00:42.415Z,99610.19
2018-07-03T03:03:10.260Z,99643.03
2018-07-03T03:05:38.156Z,99666.31
2018-07-03T03:08:06.161Z,99650.02
2018-07-03T03:10:34.044Z,99624.33
2018-07-03T03:13:01.992Z,99611.06
2018-07-03T03:15:29.866Z,99607.84
2018-07-03T03:17:57.759Z,99616.19
2018-07-03T03:20:25.638Z,99627.13
2018-07-03T03:22:53.682Z,99650.79
2018-07-03T03:25:21.621Z,99675.19
2018-07-03T03:27:49.484Z,99678.45
2018-07-03T03:30:17.413Z,99673.14
2018-07-03T03:32:45.277Z,99675.08
2018-07-03T03:35:13.143Z,99674.94
2018-07-03T03:37:41.054Z,99663.72
2018-07-03T03:40:08.972Z,99675.20
2018-07-03T03:42:36.868Z,99680.93
2018-07-03T03:45:04.795Z,99678.12
2018-07-03T03:47:32.723Z,99658.23
2018-07-03T03:50:00.570Z,99646.02
2018-07-03T03:52:28.417Z,99637.98
2018-07-03T03:54:56.266Z,99625.73
2018-07-03T03:57:24.497Z,99607.89
2018-07-03T03:59:52.368Z,99595.95
2018-07-03T04:02:20.255Z,99592.02
2018-07-03T04:04:48.151Z,99584.88
2018-07-03T04:07:16.108Z,99572.80
2018-07-03T04:09:44.014Z,99557.53
2018-07-03T04:12:11.863Z,99540.45
2018-07-03T04:14:39.730Z,99521.54
2018-07-03T04:17:07.566Z,99518.15
2018-07-03T04:19:35.699Z,99527.13
2018-07-03T04:22:03.593Z,99541.07
2018-07-03T04:24:31.481Z,99491.50
2018-07-03T04:26:59.327Z,99483.91
2018-07-03T04:29:27.218Z,99493.83
2018-07-03T04:31:55.051Z,99503.72
2018-07-03T04:34:22.894Z,99515.09
2018-07-03T04:36:50.715Z,99524.88
2018-07-03T04:39:18.575Z,99542.97
2018-07-03T04:41:46.399Z,99540.56
2018-07-03T04:44:14.222Z,99549.11
2018-07-03T04:46:42.066Z,99553.71
2018-07-03T04:49:09.929Z,99558.66
2018-07-03T04:51:37.821Z,99563.61
2018-07-03T04:54:05.691Z,99556.39
2018-07-03T04:56:33.541Z,99559.82
2018-07-03T04:59:01.390Z,99566.28
2018-07-03T05:01:29.243Z,99563.92
2018-07-03T05:03:57.108Z,99555.31
2018-07-03T05:06:24.988Z,99551.97
2018-07-03T05:08:52.855Z,99564.75
2018-07-03T05:11:20.746Z,99580.34
2018-07-03T05:13:48.595Z,99569.27
2018-07-03T05:16:16.482Z,99574.36
2018-07-03T05:18:44.358Z,99568.61
2018-07-03T05:21:12.559Z,99560.45
2018-07-03T05:23:40.414Z,99561.23
2018-07-03T05:26:08.294Z,99568.08
2018-07-03T05:28:36.181Z,99562.14
2018-07-03T05:31:04.105Z,99564.30
2018-07-03T05:33:31.967Z,99562.02
2018-07-03T05:35:59.818Z,99569.56
2018-07-03T05:38:28.018Z,99587.47
2018-07-03T05:40:55.954Z,99581.21
2018-07-03T05:43:23.800Z,99577.67
2018-07-03T05:45:51.699Z,99579.63
2018-07-03T05:48:19.861Z,99583.46
2018-07-03T05:50:47.786Z,99576.20
2018-07-03T05:53:15.694Z,99570.56
2018-07-03T05:55:43.550Z,99579.16
2018-07-03T05:58:11.422Z,99573.84
2018-07-03T06:00:39.309Z,99584.36
2018-07-03T06:03:07.207Z,99574.28
2018-07-03T06:05:35.123Z,99561.04
2018-07-03T06:08:03.036Z,99542.91
2018-07-03T06:10:30.947Z,99530.16
2018-07-03T06:12:58.867Z,99532.87
2018-07-03T06:15:26.702Z,99528.86
2018-07-03T06:17:54.875Z,99528.16
2018-07-03T06:20:22.772Z,99523.21
2018-07-03T06:22:50.665Z,99522.22
2018-07-03T06:25:18.580Z,99523.04
2018-07-03T06:27:46.427Z,99535.70
2018-07-03T06:30:14.305Z,99553.22
2018-07-03T06:32:42.162Z,99557.77
2018-07-03T06:35:10.051Z,99559.84
2018-07-03T06:37:37.977Z,99557.05
2018-07-03T06:40:05.911Z,99556.97
2018-07-03T06:42:33.785Z,99564.60
2018-07-03T06:45:01.750Z,99542.94
2018-07-03T06:47:29.563Z,99539.64
2018-07-03T06:49:57.503Z,99537.59
2018-07-03T06:52:25.413Z,99535.94
2018-07-03T07:00:01.325Z,99551.52
2018-07-03T07:02:29.256Z,99551.34
2018-07-03T07:04:57.132Z,99551.46
2018-07-03T07:07:30.954Z,99537.52
2018-07-03T07:09:58.767Z,99544.53
2018-07-03T07:12:26.629Z,99546.17
2018-07-03T07:14:54.519Z,99557.45
2018-07-03T07:17:22.369Z,99544.69
2018-07-03T07:19:50.258Z,99551.66
2018-07-03T07:22:18.096Z,99556.80
2018-07-03T07:24:45.877Z,99557.82
2018-07-03T07:27:13.719Z,99556.22
2018-07-03T07:29:41.574Z,99546.21
2018-07-03T07:32:09.410Z,99545.54
2018-07-03T07:34:37.265Z,99544.27
2018-07-03T07:37:05.146Z,99544.52
2018-07-03T07:39:33.283Z,99539.89
2018-07-03T07:42:01.136Z,99544.44
2018-07-03T07:44:29.005Z,99538.51
2018-07-03T07:46:56.883Z,99544.84
2018-07-03T07:49:24.740Z,99545.89
2018-07-03T07:51:52.634Z,99541.81
2018-07-03T07:54:20.504Z,99541.94
2018-07-03T07:56:48.386Z,99539.85
2018-07-03T07:59:16.242Z,99541.07
2018-07-03T08:01:44.105Z,99541.41
2018-07-03T08:04:11.978Z,99530.64
2018-07-03T08:06:39.877Z,99526.14
2018-07-03T08:09:08.978Z,99529.24
2018-07-03T08:11:36.888Z,99519.95
2018-07-03T08:14:04.953Z,99511.22
2018-07-03T08:16:32.808Z,99526.67
2018-07-03T08:19:00.647Z,99524.17
2018-07-03T08:21:28.486Z,99518.23
2018-07-03T08:23:56.335Z,99525.60
2018-07-03T08:26:24.196Z,99525.30
2018-07-03T08:28:52.723Z,99519.16
2018-07-03T08:31:20.545Z,99516.23
2018-07-03T08:33:48.391Z,99523.00
2018-07-03T08:36:16.244Z,99522.20
2018-07-03T08:38:44.079Z,99514.50
2018-07-03T08:41:11.909Z,99521.61
2018-07-03T08:43:39.782Z,99520.27
2018-07-03T08:46:07.765Z,99522.05
2018-07-03T08:48:35.635Z,99520.70
2018-07-03T08:51:03.513Z,99520.20
2018-07-03T08:53:31.382Z,99517.49
2018-07-03T08:55:59.264Z,99512.28
2018-07-03T08:58:27.627Z,99516.75
2018-07-03T09:00:55.875Z,99516.30
2018-07-03T09:03:23.750Z,99519.00
2018-07-03T09:05:51.650Z,99514.80
2018-07-03T09:08:19.625Z,99509.69
2018-07-03T09:10:47.779Z,99515.95
2018-07-03T09:13:15.612Z,99508.84
2018-07-03T09:15:43.450Z,99507.39
2018-07-03T09:18:11.422Z,99501.32
2018-07-03T09:20:39.485Z,99509.81
2018-07-03T09:23:07.345Z,99507.29
2018-07-03T09:25:35.340Z,99509.91
2018-07-03T09:28:03.238Z,99510.64
2018-07-03T09:30:31.134Z,99509.80
2018-07-03T09:32:58.992Z,99507.82
2018-07-03T09:35:26.858Z,99513.94
2018-07-03T09:37:54.963Z,99504.38
2018-07-03T09:40:22.850Z,99508.29
2018-07-03T09:42:50.795Z,99505.50
2018-07-03T09:45:18.667Z,99503.80
2018-07-03T09:47:46.523Z,99505.58
2018-07-03T09:50:14.394Z,99501.40
2018-07-03T09:52:42.268Z,99496.42
2018-07-03T09:55:10.120Z,99494.23
2018-07-03T09:57:38.046Z,99494.31
2018-07-03T10:00:06.752Z,99490.85
2018-07-03T10:02:34.685Z,99489.84
2018-07-03T10:05:02.554Z,99475.89
2018-07-03T10:07:30.451Z,99474.56
2018-07-03T10:09:58.341Z,99486.30
2018-07-03T10:12:26.221Z,99491.66
2018-07-03T10:14:54.111Z,99482.59
2018-07-03T10:17:22.326Z,99488.22
2018-07-03T10:19:50.279Z,99475.31
2018-07-03T10:22:18.185Z,99480.63
2018-07-03T10:24:46.075Z,99479.17
2018-07-03T10:27:13.904Z,99471.82
2018-07-03T10:29:41.754Z,99479.48
2018-07-03T10:32:09.681Z,99476.38
2018-07-03T10:34:37.568Z,99479.50
2018-07-03T10:37:05.462Z,99475.91
2018-07-03T10:39:33.339Z,99475.34
2018-07-03T10:42:01.500Z,99482.12
2018-07-03T10:44:29.423Z,99471.98
2018-07-03T10:46:57.320Z,99477.55
2018-07-03T10:49:25.302Z,99479.17
2018-07-03T10:51:53.175Z,99460.71
2018-07-03T10:54:21.299Z,99474.42
2018-07-03T10:56:49.162Z,99475.53
2018-07-03T10:59:17.043Z,99468.88
2018-07-03T11:01:44.943Z,99462.93
2018-07-03T11:04:12.804Z,99465.16
2018-07-03T11:06:40.702Z,99464.98
2018-07-03T11:09:10.298Z,99459.16
2018-07-03T11:11:38.236Z,99463.17
2018-07-03T11:14:06.208Z,99455.82
2018-07-03T11:16:34.055Z,99452.34
2018-07-03T11:19:01.965Z,99456.77
2018-07-03T11:21:29.875Z,99450.67
2018-07-03T11:23:57.872Z,99454.69
2018-07-03T11:26:25.762Z,99447.65
2018-07-03T11:28:53.994Z,99447.09
2018-07-03T11:31:21.866Z,99448.68
2018-07-03T11:33:49.774Z,99450.87
2018-07-03T11:36:17.658Z,99451.22
2018-07-03T11:38:45.530Z,99443.67
2018-07-03T11:41:13.388Z,99443.85
2018-07-03T11:43:41.221Z,99447.20
2018-07-03T11:46:09.412Z,99445.36
2018-07-03T11:48:37.274Z,99445.69
2018-07-03T11:51:05.216Z,99446.99
2018-07-03T11:53:33.121Z,99446.57
2018-07-03T11:56:00.975Z,99433.69
2018-07-03T11:58:28.840Z,99433.80
2018-07-03T12:00:56.836Z,99443.60
2018-07-03T12:03:24.727Z,99430.62
2018-07-03T12:05:52.688Z,99431.97
2018-07-03T12:08:20.561Z,99431.81
2018-07-03T12:10:48.439Z,99436.44
2018-07-03T12:13:16.339Z,99431.55
2018-07-03T12:15:44.250Z,99430.02
2018-07-03T12:18:16.663Z,99424.03
2018-07-03T12:20:44.558Z,99434.05
2018-07-03T12:23:12.435Z,99430.47
2018-07-03T12:25:40.369Z,99428.42
2018-07-03T12:28:08.301Z,99428.28
2018-07-03T12:30:36.224Z,99427.98
2018-07-03T12:33:04.111Z,99418.21
2018-07-03T12:35:32.254Z,99408.66
2018-07-03T12:38:00.111Z,99404.31
2018-07-03T12:40:27.950Z,99400.78
2018-07-03T12:42:55.831Z,99399.16
2018-07-03T12:45:23.836Z,99396.48
2018-07-03T12:47:51.702Z,99406.02
2018-07-03T12:50:19.622Z,99403.78
2018-07-03T12:52:47.539Z,99407.64
2018-07-03T12:55:15.429Z,99407.27
2018-07-03T12:57:43.297Z,99407.55
2018-07-03T13:00:11.216Z,99410.86
2018-07-03T13:02:39.119Z,99401.09
2018-07-03T13:05:07.078Z,99402.64
2018-07-03T13:07:35.004Z,99398.29
2018-07-03T13:10:03.147Z,99398.20
2018-07-03T13:12:31.032Z,99393.94
2018-07-03T13:14:58.892Z,99394.27
2018-07-03T13:17:26.783Z,99397.31
2018-07-03T13:19:54.878Z,99398.12
2018-07-03T13:22:22.798Z,99396.10
2018-07-03T13:24:50.923Z,99397.16
2018-07-03T13:27:19.764Z,99391.16
2018-07-03T13:29:47.662Z,99399.45
2018-07-03T13:32:15.536Z,99388.96
2018-07-03T13:34:43.418Z,99396.05
2018-07-03T13:37:11.343Z,99391.40
2018-07-03T13:39:39.196Z,99393.46
2018-07-03T13:42:07.132Z,99399.82
2018-07-03T13:44:34.995Z,99391.27
2018-07-03T13:47:02.885Z,99393.78
2018-07-03T13:49:30.746Z,99393.38
2018-07-03T13:51:58.638Z,99391.52
2018-07-03T13:54:26.495Z,99392.95
2018-07-03T13:56:54.351Z,99393.45
2018-07-03T13:59:22.205Z,99394.01
2018-07-03T14:01:50.082Z,99398.20
2018-07-03T14:04:17.962Z,99394.67
2018-07-03T14:06:45.871Z,99399.55
2018-07-03T14:09:13.740Z,99400.81
2018-07-03T14:11:41.609Z,99406.13
2018-07-03T14:14:09.476Z,99409.31
2018-07-03T14:16:37.341Z,99405.46
2018-07-03T14:19:05.291Z,99412.51
2018-07-03T14:21:33.208Z,99420.52
2018-07-03T14:24:01.075Z,99415.98
2018-07-03T14:26:28.924Z,99427.59
2018-07-03T14:28:56.769Z,99420.03
2018-07-03T14:31:24.619Z,99424.96
2018-07-03T14:33:53.063Z,99423.47
2018-07-03T14:36:21.053Z,99423.02
2018-07-03T14:38:48.892Z,99423.91
2018-07-03T14:41:16.761Z,99419.63
2018-07-03T14:43:44.625Z,99414.66
2018-07-03T14:46:12.463Z,99416.06
2018-07-03T14:48:40.334Z,99423.67
2018-07-03T14:51:08.255Z,99418.17
2018-07-03T14:53:36.202Z,99418.03
2018-07-03T14:56:04.163Z,99411.86
2018-07-03T14:58:32.055Z,99415.97
2018-07-03T15:01:00.012Z,99414.85
2018-07-03T15:03:27.950Z,99407.64
2018-07-03T15:05:55.842Z,99401.52
2018-07-03T15:08:23.774Z,99409.98
2018-07-03T15:10:51.627Z,99394.64
2018-07-03T15:13:19.571Z,99395.91
2018-07-03T15:15:47.513Z,99390.52
2018-07-03T15:18:15.440Z,99387.98
2018-07-03T15:20:43.323Z,99394.25
2018-07-03T15:23:11.207Z,99393.80
2018-07-03T15:25:39.052Z,99395.98
2018-07-03T15:28:06.958Z,99393.06
2018-07-03T15:30:34.851Z,99397.44
2018-07-03T15:33:03.746Z,99390.77
2018-07-03T15:35:31.624Z,99392.01
2018-07-03T15:37:59.485Z,99392.89
2018-07-03T15:40:27.405Z,99401.31
2018-07-03T15:42:55.680Z,99400.81
2018-07-03T15:45:23.571Z,99405.46
2018-07-03T15:47:51.437Z,99403.14
2018-07-03T15:50:19.335Z,99409.88
2018-07-03T15:52:47.177Z,99406.56
2018-07-03T15:55:15.163Z,99405.50
2018-07-03T15:57:43.031Z,99403.48
2018-07-03T16:00:14.081Z,99402.45
2018-07-03T16:02:52.733Z,99404.72
2018-07-03T16:05:31.915Z,99404.96
2018-07-03T16:09:08.322Z,99404.81
2018-07-03T16:11:36.332Z,99391.83
2018-07-03T16:14:04.292Z,99396.94
2018-07-03T16:16:32.425Z,99398.66
2018-07-03T16:19:05.758Z,99396.63
2018-07-03T16:21:33.665Z,99397.02
2018-07-03T16:24:01.538Z,99388.31
2018-07-03T16:26:29.450Z,99396.25
2018-07-03T16:28:57.326Z,99394.70
2018-07-03T16:31:25.369Z,99395.16
2018-07-03T16:33:53.735Z,99385.84
2018-07-03T16:36:21.657Z,99384.01
2018-07-03T16:38:49.596Z,99386.28
2018-07-03T16:41:17.472Z,99388.73
2018-07-03T16:43:45.383Z,99388.48
2018-07-03T16:46:13.279Z,99389.31
2018-07-03T16:48:41.138Z,99391.15
2018-07-03T16:51:10.024Z,99396.27
2018-07-03T16:53:38.193Z,99401.56
2018-07-03T16:56:06.116Z,99393.99
2018-07-03T16:58:34.024Z,99399.46
2018-07-03T17:01:01.889Z,99401.59
2018-07-03T17:03:29.819Z,99394.00
2018-07-03T17:05:57.683Z,99396.49
2018-07-03T17:08:25.594Z,99405.36
2018-07-03T17:10:53.499Z,99409.41
2018-07-03T17:13:21.524Z,99402.06
2018-07-03T17:15:49.412Z,99405.42
2018-07-03T17:18:17.335Z,99410.77
2018-07-03T17:20:45.248Z,99411.91
2018-07-03T17:23:13.097Z,99418.78
2018-07-03T17:25:41.157Z,99421.15
2018-07-03T17:28:09.487Z,99417.44
2018-07-03T17:30:37.350Z,99417.86
2018-07-03T17:33:05.788Z,99419.75
2018-07-03T17:35:34.074Z,99428.41
2018-07-03T17:38:02.072Z,99426.80
2018-07-03T17:40:41.099Z,99423.83
2018-07-03T17:44:21.329Z,99435.69
2018-07-03T17:46:49.440Z,99439.61
2018-07-03T17:49:18.190Z,99441.16
2018-07-03T17:51:46.126Z,99441.73
2018-07-03T17:54:14.190Z,99442.80
2018-07-03T17:56:42.093Z,99441.77
2018-07-03T17:59:09.931Z,99447.42
2018-07-03T18:01:37.921Z,99450.73
2018-07-03T18:04:05.872Z,99450.49
2018-07-03T18:06:33.718Z,99452.15
2018-07-03T18:09:01.656Z,99457.66
2018-07-03T18:11:29.612Z,99454.33
2018-07-03T18:13:57.536Z,99455.07
2018-07-03T18:16:25.414Z,99457.53
2018-07-03T18:18:58.872Z,99456.90
2018-07-03T18:21:26.791Z,99451.73
2018-07-03T18:23:55.066Z,99453.23
2018-07-03T18:26:22.934Z,99450.79
2018-07-03T18:28:51.046Z,99460.67
2018-07-03T18:31:18.931Z,99463.56
2018-07-03T18:33:46.991Z,99460.34
2018-07-03T18:36:14.691Z,99456.75
2018-07-03T18:38:42.554Z,99468.20
2018-07-03T18:41:10.428Z,99465.42
2018-07-03T18:43:38.315Z,99479.86
2018-07-03T18:46:06.185Z,99477.92
2018-07-03T18:48:34.096Z,99482.22
2018-07-03T18:51:01.973Z,99481.42
2018-07-03T18:53:29.846Z,99483.16
2018-07-03T18:55:58.048Z,99486.20
2018-07-03T18:58:25.958Z,99486.05
2018-07-03T19:00:53.842Z,99489.20
2018-07-03T19:03:21.776Z,99487.30
2018-07-03T19:05:49.588Z,99489.88
2018-07-03T19:08:17.494Z,99492.57
2018-07-03T19:10:45.439Z,99495.03
2018-07-03T19:13:13.293Z,99489.29
2018-07-03T19:15:41.157Z,99494.61
2018-07-03T19:18:09.072Z,99498.28
2018-07-03T19:20:36.998Z,99497.59
2018-07-03T19:23:05.259Z,99499.57
2018-07-03T19:25:33.230Z,99496.77
2018-07-03T19:28:01.250Z,99501.02
2018-07-03T19:30:29.209Z,99504.78
2018-07-03T19:32:57.061Z,99499.74
2018-07-03T19:35:25.054Z,99507.55
2018-07-03T19:37:53.325Z,99501.75
2018-07-03T19:40:21.344Z,99500.80
2018-07-03T19:43:29.376Z,99494.78
2018-07-03T19:45:58.089Z,99503.88
2018-07-03T19:48:26.001Z,99501.55
2018-07-03T19:50:54.080Z,99504.25
2018-07-03T19:53:22.292Z,99504.92
2018-07-03T19:55:51.363Z,99497.80
2018-07-03T19:58:20.189Z,99502.95
2018-07-03T20:00:49.177Z,99503.03
2018-07-03T20:03:17.133Z,99504.70
2018-07-03T20:05:45.034Z,99502.77
2018-07-03T20:08:12.956Z,99513.37
2018-07-03T20:10:40.901Z,99507.08
2018-07-03T20:13:10.745Z,99511.80
2018-07-03T20:15:38.842Z,99508.73
2018-07-03T20:18:07.466Z,99506.47
2018-07-03T20:20:35.371Z,99507.77
2018-07-03T20:23:03.405Z,99512.77
2018-07-03T20:25:31.326Z,99516.66
2018-07-03T20:27:59.801Z,99521.98
2018-07-03T20:30:27.751Z,99527.15
2018-07-03T20:32:55.606Z,99522.55
2018-07-03T20:35:23.558Z,99522.87
2018-07-03T20:37:54.226Z,99521.19
2018-07-03T20:40:22.853Z,99520.20
2018-07-03T20:42:51.838Z,99518.77
2018-07-03T20:45:20.207Z,99516.22
2018-07-03T20:47:48.357Z,99512.31
2018-07-03T20:50:16.861Z,99521.93
2018-07-03T20:52:44.943Z,99516.73
2018-07-03T20:55:13.382Z,99520.67
2018-07-03T20:57:41.206Z,99523.69
2018-07-03T21:00:09.062Z,99514.27
2018-07-03T21:02:36.936Z,99508.16
2018-07-03T21:05:04.824Z,99514.81
2018-07-03T21:07:32.689Z,99509.66
2018-07-03T21:10:00.557Z,99507.92
2018-07-03T21:12:28.385Z,99504.77
2018-07-03T21:14:56.215Z,99501.33
2018-07-03T21:17:24.049Z,99498.87
2018-07-03T21:19:51.896Z,99503.91
2018-07-03T21:22:19.746Z,99505.00
2018-07-03T21:24:47.622Z,99506.93
2018-07-03T21:27:15.462Z,99501.09
2018-07-03T21:29:43.287Z,99507.36
2018-07-03T21:32:11.191Z,99505.80
2018-07-03T21:34:38.983Z,99504.95
2018-07-03T21:37:06.826Z,99504.25
2018-07-03T21:39:34.635Z,99503.80
2018-07-03T21:42:02.456Z,99506.49
2018-07-03T21:44:30.256Z,99506.20
2018-07-03T21:46:58.112Z,99500.60
2018-07-03T21:49:25.940Z,99508.01
2018-07-03T21:51:53.798Z,99508.48
2018-07-03T21:54:21.622Z,99503.67
2018-07-03T21:56:49.440Z,99505.05
2018-07-03T21:59:17.283Z,99507.76
2018-07-03T22:01:45.138Z,99508.99
2018-07-03T22:04:13.007Z,99508.47
2018-07-03T22:06:40.850Z,99501.77
2018-07-03T22:09:11.013Z,99507.36
2018-07-03T22:11:38.873Z,99501.61
2018-07-03T22:14:06.687Z,99487.93
2018-07-03T22:16:34.521Z,99489.50
2018-07-03T22:19:02.375Z,99485.61
2018-07-03T22:21:30.239Z,99487.79
2018-07-03T22:23:58.214Z,99485.53
2018-07-03T22:26:26.080Z,99485.61
2018-07-03T22:28:54.036Z,99485.94
2018-07-03T22:31:21.878Z,99490.89
2018-07-03T22:33:49.703Z,99491.49
2018-07-03T22:36:17.516Z,99486.45
2018-07-03T22:38:45.418Z,99487.67
2018-07-03T22:41:13.211Z,99486.77
2018-07-03T22:43:41.039Z,99489.42
2018-07-03T22:46:08.851Z,99489.89
2018-07-03T22:48:36.755Z,99488.34
2018-07-03T22:51:04.619Z,99490.06
2018-07-03T22:53:32.667Z,99482.09
2018-07-03T22:56:00.497Z,99483.01
2018-07-03T22:58:28.399Z,99480.86
2018-07-03T23:00:56.283Z,99481.44
2018-07-03T23:03:24.119Z,99483.99
2018-07-03T23:05:51.962Z,99479.92
2018-07-03T23:08:19.927Z,99480.50
2018-07-03T23:10:47.756Z,99483.09
2018-07-03T23:13:15.597Z,99487.61
2018-07-03T23:15:43.520Z,99483.16
2018-07-03T23:18:11.617Z,99479.88
2018-07-03T23:20:39.437Z,99472.05
2018-07-03T23:23:07.254Z,99485.09
2018-07-03T23:25:35.095Z,99484.91
2018-07-03T23:28:02.942Z,99484.92
2018-07-03T23:30:30.800Z,99483.51
2018-07-03T23:32:58.614Z,99480.10
2018-07-03T23:35:26.477Z,99483.42
2018-07-03T23:37:54.288Z,99488.20
2018-07-03T23:40:22.122Z,99486.92
2018-07-03T23:42:49.950Z,99491.36
2018-07-03T23:45:17.764Z,99497.17
2018-07-03T23:47:56.701Z,99493.83
2018-07-03T23:50:41.951Z,99495.30
2018-07-03T23:53:26.879Z,99497.26
2018-07-03T23:56:11.795Z,99496.37
2018-07-03T23:58:56.774Z,99498.58
